createdAt,value
2022-12-13T00:01:31.560Z,10.20
2022-12-13T00:03:58.657Z,12.93
2022-12-13T00:06:25.816Z,9.15
2022-12-13T00:08:53.177Z,13.07
2022-12-13T00:11:20.242Z,10.73
2022-12-13T00:13:48.045Z,8.82
2022-12-13T00:16:15.223Z,8.77
2022-12-13T00:18:42.339Z,10.18
2022-12-13T00:21:09.462Z,9.32
2022-12-13T00:23:36.611Z,10.70
2022-12-13T00:26:03.702Z,10.70
2022-12-13T00:28:30.842Z,8.60
2022-12-13T00:31:01.646Z,10.30
2022-12-13T00:33:40.776Z,9.00
2022-12-13T00:36:07.845Z,9.00
2022-12-13T00:38:34.933Z,9.00
2022-12-13T00:41:02.001Z,7.78
2022-12-13T00:43:29.067Z,8.27
2022-12-13T00:45:56.180Z,9.35
2022-12-13T00:48:23.968Z,9.00
2022-12-13T00:50:51.457Z,9.52
2022-12-13T00:53:18.513Z,9.10
2022-12-13T00:55:45.573Z,9.25
2022-12-13T00:58:12.630Z,10.43
2022-12-13T01:00:39.688Z,9.98
2022-12-13T01:03:20.545Z,10.10
2022-12-13T01:06:14.405Z,10.77
2022-12-13T01:08:34.937Z,10.00
2022-12-13T01:11:02.000Z,10.50
2022-12-13T01:13:29.085Z,10.30
2022-12-13T01:15:56.139Z,10.40
2022-12-13T01:18:23.227Z,10.05
2022-12-13T01:20:50.276Z,10.13
2022-12-13T01:23:17.340Z,9.65
2022-12-13T01:28:20.302Z,10.30
2022-12-13T01:30:47.416Z,9.95
2022-12-13T01:33:14.765Z,8.48
2022-12-13T01:35:41.897Z,11.05
2022-12-13T01:38:15.965Z,10.00
2022-12-13T01:40:43.406Z,10.30
2022-12-13T01:43:14.874Z,9.98
2022-12-13T01:45:42.145Z,9.32
2022-12-13T01:48:09.205Z,9.77
2022-12-13T01:50:36.305Z,11.27
2022-12-13T01:53:03.439Z,8.90
2022-12-13T01:55:30.492Z,9.60
2022-12-13T01:57:57.545Z,9.38
2022-12-13T02:00:24.623Z,10.07
2022-12-13T02:02:51.700Z,9.02
2022-12-13T02:05:19.669Z,9.73
2022-12-13T02:07:46.832Z,9.32
2022-12-13T02:10:13.905Z,10.45
2022-12-13T02:12:40.963Z,9.00
2022-12-13T02:15:08.064Z,10.20
2022-12-13T02:17:35.543Z,12.10
2022-12-13T02:20:12.835Z,9.98
2022-12-13T02:22:48.912Z,8.70
2022-12-13T02:25:16.250Z,9.23
2022-12-13T02:27:44.155Z,11.07
2022-12-13T02:30:11.235Z,9.00
2022-12-13T02:32:38.298Z,11.02
2022-12-13T02:35:05.354Z,8.32
2022-12-13T02:37:32.420Z,10.32
2022-12-13T02:39:59.485Z,9.65
2022-12-13T02:42:26.601Z,10.38
2022-12-13T02:44:53.694Z,9.90
2022-12-13T02:47:21.861Z,9.02
2022-12-13T02:49:49.501Z,8.88
2022-12-13T02:52:22.238Z,9.82
2022-12-13T02:54:49.817Z,9.60
2022-12-13T02:57:16.885Z,10.13
2022-12-13T02:59:48.822Z,10.10
2022-12-13T03:02:21.608Z,10.43
2022-12-13T03:05:17.425Z,10.52
2022-12-13T03:07:44.693Z,10.02
2022-12-13T03:10:11.750Z,9.63
2022-12-13T03:12:57.737Z,9.05
2022-12-13T03:15:24.908Z,11.10
2022-12-13T03:17:51.962Z,10.10
2022-12-13T03:20:22.647Z,10.38
2022-12-13T03:22:50.469Z,9.60
2022-12-13T03:25:31.514Z,10.68
2022-12-13T03:28:01.600Z,8.93
2022-12-13T03:30:29.436Z,9.40
2022-12-13T03:32:56.506Z,9.05
2022-12-13T03:35:23.692Z,9.90
2022-12-13T03:37:51.079Z,10.65
2022-12-13T03:40:18.262Z,8.93
2022-12-13T03:42:45.318Z,10.82
2022-12-13T03:45:12.733Z,9.85
2022-12-13T03:47:40.040Z,8.30
2022-12-13T03:50:25.339Z,10.23
2022-12-13T03:52:54.125Z,9.35
2022-12-13T03:55:21.227Z,9.52
2022-12-13T03:57:48.282Z,8.85
2022-12-13T04:00:15.358Z,10.35
2022-12-13T04:02:42.458Z,9.30
2022-12-13T04:05:09.547Z,9.25
2022-12-13T04:07:36.607Z,9.88
2022-12-13T04:10:03.688Z,10.20
2022-12-13T04:13:09.517Z,9.57
2022-12-13T04:15:36.586Z,8.43
2022-12-13T04:18:03.665Z,10.30
2022-12-13T04:20:30.738Z,9.30
2022-12-13T04:22:57.863Z,9.25
2022-12-13T04:25:24.939Z,11.15
2022-12-13T04:27:52.170Z,9.60
2022-12-13T04:30:19.358Z,8.98
2022-12-13T04:32:46.409Z,9.40
2022-12-13T04:35:13.603Z,9.40
2022-12-13T04:37:43.565Z,9.38
2022-12-13T04:40:10.718Z,9.15
2022-12-13T04:42:37.940Z,10.13
2022-12-13T04:45:05.017Z,9.27
2022-12-13T04:47:32.121Z,8.82
2022-12-13T04:49:59.346Z,9.52
2022-12-13T04:52:26.488Z,8.82
2022-12-13T04:54:55.364Z,9.10
2022-12-13T04:57:23.242Z,9.68
2022-12-13T04:59:50.753Z,9.10
2022-12-13T05:02:23.418Z,8.88
2022-12-13T05:04:53.728Z,8.27
2022-12-13T05:07:21.282Z,9.23
2022-12-13T05:09:48.359Z,9.38
2022-12-13T05:12:22.341Z,8.75
2022-12-13T05:14:50.418Z,9.23
2022-12-13T05:17:17.536Z,9.70
2022-12-13T05:19:44.768Z,8.93
2022-12-13T05:22:50.302Z,8.57
2022-12-13T05:25:17.591Z,8.90
2022-12-13T05:27:44.819Z,9.85
2022-12-13T05:30:11.958Z,11.93
2022-12-13T05:32:44.194Z,8.50
2022-12-13T05:35:12.359Z,9.07
2022-12-13T05:37:39.772Z,9.65
2022-12-13T05:40:06.893Z,8.02
2022-12-13T05:42:34.205Z,8.40
2022-12-13T05:45:01.558Z,9.35
2022-12-13T05:47:28.715Z,9.93
2022-12-13T05:49:56.005Z,9.35
2022-12-13T05:52:30.697Z,10.20
2022-12-13T05:55:01.038Z,9.57
2022-12-13T05:57:28.534Z,9.50
2022-12-13T05:59:55.726Z,9.00
2022-12-13T06:02:23.012Z,9.25
2022-12-13T06:04:50.305Z,8.93
2022-12-13T06:07:17.360Z,8.05
2022-12-13T06:09:44.414Z,9.38
2022-12-13T06:12:32.058Z,8.90
2022-12-13T06:15:21.799Z,9.18
2022-12-13T06:17:45.702Z,8.63
2022-12-13T06:20:24.267Z,9.60
2022-12-13T06:22:51.934Z,8.90
2022-12-13T06:25:31.105Z,8.32
2022-12-13T06:28:00.910Z,9.40
2022-12-13T06:30:28.850Z,9.00
2022-12-13T06:32:55.986Z,9.88
2022-12-13T06:35:28.940Z,8.68
2022-12-13T06:38:01.292Z,9.38
2022-12-13T06:40:29.198Z,7.80
2022-12-13T06:42:56.448Z,8.00
2022-12-13T06:45:23.727Z,9.27
2022-12-13T06:47:50.796Z,9.10
2022-12-13T06:50:17.992Z,7.38
2022-12-13T06:52:45.082Z,9.32
2022-12-13T06:55:12.129Z,8.10
2022-12-13T06:57:40.848Z,8.75
2022-12-13T07:00:08.218Z,7.95
2022-12-13T07:02:35.428Z,8.98
2022-12-13T07:05:02.617Z,8.48
2022-12-13T07:07:29.924Z,8.52
2022-12-13T07:09:56.997Z,8.18
2022-12-13T07:12:24.064Z,10.63
2022-12-13T07:14:51.118Z,8.23
2022-12-13T07:17:32.448Z,8.57
2022-12-13T07:20:01.155Z,9.25
2022-12-13T07:22:28.490Z,9.98
2022-12-13T07:24:55.587Z,8.60
2022-12-13T07:27:22.642Z,7.82
2022-12-13T07:29:49.715Z,7.60
2022-12-13T07:32:17.041Z,8.07
2022-12-13T07:34:44.105Z,8.40
2022-12-13T07:37:30.156Z,9.25
2022-12-13T07:40:03.318Z,7.60
2022-12-13T07:42:31.624Z,9.20
2022-12-13T07:44:58.724Z,8.90
2022-12-13T07:47:29.359Z,8.68
2022-12-13T07:49:56.430Z,9.05
2022-12-13T07:52:23.487Z,11.32
2022-12-13T07:54:50.554Z,10.77
2022-12-13T07:57:17.610Z,9.65
2022-12-13T07:59:46.747Z,8.00
2022-12-13T08:02:13.950Z,8.88
2022-12-13T08:04:41.161Z,9.52
2022-12-13T08:07:09.087Z,8.80
2022-12-13T08:09:36.292Z,8.07
2022-12-13T08:12:03.416Z,12.20
2022-12-13T08:14:30.487Z,8.88
2022-12-13T08:16:57.566Z,8.88
2022-12-13T08:19:24.638Z,8.50
2022-12-13T08:21:55.752Z,8.98
2022-12-13T08:24:23.931Z,12.00
2022-12-13T08:26:51.035Z,8.82
2022-12-13T08:29:23.109Z,10.73
2022-12-13T08:32:01.384Z,7.25
2022-12-13T08:34:28.872Z,10.27
2022-12-13T08:37:02.881Z,8.27
2022-12-13T08:39:30.624Z,8.20
2022-12-13T08:42:16.589Z,8.82
2022-12-13T08:44:45.184Z,8.27
2022-12-13T08:47:12.260Z,10.52
2022-12-13T08:49:50.931Z,8.10
2022-12-13T08:52:17.987Z,7.53
2022-12-13T08:54:45.068Z,7.55
2022-12-13T08:57:12.957Z,8.63
2022-12-13T08:59:40.021Z,7.03
2022-12-13T09:02:07.150Z,8.43
2022-12-13T09:04:34.309Z,8.13
2022-12-13T09:07:02.036Z,8.35
2022-12-13T09:09:29.646Z,7.57
2022-12-13T09:11:59.439Z,8.02
2022-12-13T09:14:34.203Z,8.80
2022-12-13T09:17:03.067Z,10.93
2022-12-13T09:19:36.918Z,8.48
2022-12-13T09:22:04.673Z,7.55
2022-12-13T09:24:36.444Z,8.95
2022-12-13T09:27:09.938Z,7.95
2022-12-13T09:29:37.579Z,8.63
2022-12-13T09:32:04.781Z,7.80
2022-12-13T09:34:33.219Z,7.15
2022-12-13T09:37:01.519Z,10.35
2022-12-13T09:39:28.865Z,7.47
2022-12-13T09:42:00.985Z,7.65
2022-12-13T09:44:31.561Z,7.88
2022-12-13T09:47:01.082Z,7.78
2022-12-13T09:49:28.463Z,9.20
2022-12-13T09:52:11.422Z,7.40
2022-12-13T09:54:49.335Z,9.77
2022-12-13T09:57:32.095Z,8.40
2022-12-13T10:00:01.559Z,7.18
2022-12-13T10:02:29.421Z,7.63
2022-12-13T10:05:00.716Z,9.45
2022-12-13T10:07:28.560Z,6.85
2022-12-13T10:09:55.609Z,8.23
2022-12-13T10:12:22.662Z,7.43
2022-12-13T10:14:49.803Z,10.10
2022-12-13T10:17:16.912Z,8.30
2022-12-13T10:19:44.067Z,6.57
2022-12-13T10:22:11.143Z,7.10
2022-12-13T10:24:38.698Z,8.30
2022-12-13T10:27:06.046Z,6.75
2022-12-13T10:29:33.101Z,7.28
2022-12-13T10:32:00.216Z,6.20
2022-12-13T10:34:29.217Z,7.05
2022-12-13T10:36:59.931Z,7.75
2022-12-13T10:39:27.173Z,6.82
2022-12-13T10:41:54.239Z,8.18
2022-12-13T10:44:21.589Z,8.90
2022-12-13T10:46:49.002Z,7.80
2022-12-13T10:49:16.260Z,8.23
2022-12-13T10:51:43.396Z,9.02
2022-12-13T10:54:10.473Z,9.05
2022-12-13T10:56:37.616Z,8.23
2022-12-13T10:59:04.681Z,10.13
2022-12-13T11:01:31.798Z,9.70
2022-12-13T11:04:02.368Z,8.15
2022-12-13T11:06:29.913Z,7.40
2022-12-13T11:08:57.050Z,7.95
2022-12-13T11:11:28.703Z,7.25
2022-12-13T11:14:04.823Z,7.28
2022-12-13T11:16:32.037Z,10.40
2022-12-13T11:18:59.214Z,7.20
2022-12-13T11:21:26.623Z,6.90
2022-12-13T11:23:53.735Z,7.47
2022-12-13T11:26:24.283Z,8.50
2022-12-13T11:28:51.738Z,8.77
2022-12-13T11:31:18.873Z,6.90
2022-12-13T11:33:48.547Z,9.23
2022-12-13T11:36:15.945Z,9.45
2022-12-13T11:38:44.504Z,6.63
2022-12-13T11:41:11.603Z,7.40
2022-12-13T11:43:38.804Z,8.55
2022-12-13T11:46:06.006Z,6.63
2022-12-13T11:48:33.128Z,10.30
2022-12-13T11:51:00.196Z,16.02
2022-12-13T11:53:27.651Z,12.88
2022-12-13T11:55:55.079Z,11.05
2022-12-13T11:58:45.681Z,8.27
2022-12-13T12:01:09.294Z,9.95
2022-12-13T12:03:36.410Z,9.23
2022-12-13T12:06:03.552Z,12.65
2022-12-13T12:08:31.074Z,8.18
2022-12-13T12:11:01.334Z,8.65
2022-12-13T12:13:28.576Z,8.07
2022-12-13T12:15:55.779Z,8.27
2022-12-13T12:18:23.437Z,9.25
2022-12-13T12:20:50.795Z,7.70
2022-12-13T12:23:17.889Z,7.50
2022-12-13T12:25:45.014Z,8.07
2022-12-13T12:28:12.149Z,7.25
2022-12-13T12:30:39.248Z,6.57
2022-12-13T12:33:06.354Z,7.75
2022-12-13T12:35:33.434Z,6.57
2022-12-13T12:38:00.508Z,7.45
2022-12-13T12:40:46.204Z,7.68
2022-12-13T12:43:19.705Z,6.82
2022-12-13T12:45:56.251Z,9.60
2022-12-13T12:51:10.786Z,7.05
2022-12-13T12:53:37.847Z,6.22
2022-12-13T12:56:04.918Z,7.22
2022-12-13T12:58:31.985Z,7.10
2022-12-13T13:00:59.171Z,7.32
2022-12-13T13:03:26.243Z,6.20
2022-12-13T13:05:58.560Z,5.75
2022-12-13T13:08:29.229Z,5.95
2022-12-13T13:11:02.119Z,5.95
2022-12-13T13:13:33.008Z,5.60
2022-12-13T13:16:01.953Z,6.38
2022-12-13T13:18:29.073Z,7.28
2022-12-13T13:20:56.204Z,5.85
2022-12-13T13:23:39.617Z,6.00
2022-12-13T13:26:30.414Z,8.25
2022-12-13T13:28:58.134Z,6.43
2022-12-13T13:31:25.309Z,7.47
2022-12-13T13:33:52.452Z,8.77
2022-12-13T13:36:29.077Z,5.72
2022-12-13T13:39:01.736Z,6.65
2022-12-13T13:41:29.062Z,5.72
2022-12-13T13:43:56.122Z,6.57
2022-12-13T13:46:23.274Z,6.10
2022-12-13T13:48:50.450Z,4.93
2022-12-13T13:51:17.529Z,6.22
2022-12-13T13:53:44.676Z,5.10
2022-12-13T13:56:11.794Z,5.43
2022-12-13T13:58:38.843Z,8.02
2022-12-13T14:01:05.974Z,5.05
2022-12-13T14:03:34.447Z,6.25
2022-12-13T14:06:01.879Z,6.68
2022-12-13T14:08:29.019Z,4.72
2022-12-13T14:11:05.196Z,5.38
2022-12-13T14:13:32.284Z,5.47
2022-12-13T14:16:00.383Z,7.60
2022-12-13T14:18:27.514Z,6.82
2022-12-13T14:20:54.571Z,6.65
2022-12-13T14:23:22.283Z,7.40
2022-12-13T14:25:52.484Z,5.90
2022-12-13T14:28:20.350Z,5.90
2022-12-13T14:30:48.149Z,6.32
2022-12-13T14:33:25.130Z,6.65
2022-12-13T14:35:53.099Z,7.43
2022-12-13T14:38:20.158Z,6.15
2022-12-13T14:40:47.293Z,5.95
2022-12-13T14:43:24.112Z,7.20
2022-12-13T14:45:51.691Z,7.00
2022-12-13T14:48:28.317Z,5.50
2022-12-13T14:50:56.128Z,8.05
2022-12-13T14:53:24.224Z,9.77
2022-12-13T14:55:51.563Z,5.32
2022-12-13T14:58:18.662Z,7.25
2022-12-13T15:00:46.116Z,6.90
2022-12-13T15:03:13.258Z,5.32
2022-12-13T15:05:42.231Z,5.45
2022-12-13T15:08:12.802Z,8.23
2022-12-13T15:10:40.258Z,14.85
2022-12-13T15:13:07.321Z,7.10
2022-12-13T15:15:34.412Z,7.18
2022-12-13T15:18:02.478Z,5.78
2022-12-13T15:20:29.643Z,6.15
2022-12-13T15:22:56.823Z,6.15
2022-12-13T15:25:23.891Z,5.15
2022-12-13T15:27:50.980Z,5.80
2022-12-13T15:30:18.064Z,8.00
2022-12-13T15:32:45.129Z,10.00
2022-12-13T15:35:12.186Z,7.50
2022-12-13T15:37:39.763Z,8.00
2022-12-13T15:40:06.870Z,8.48
2022-12-13T15:42:34.078Z,5.88
2022-12-13T15:45:01.231Z,6.10
2022-12-13T15:47:29.354Z,6.78
2022-12-13T15:49:56.639Z,9.57
2022-12-13T15:52:23.754Z,5.88
2022-12-13T15:54:50.820Z,8.80
2022-12-13T15:57:17.920Z,8.88
2022-12-13T15:59:45.119Z,6.65
2022-12-13T16:02:12.184Z,8.40
2022-12-13T16:04:39.332Z,9.43
2022-12-13T16:07:06.419Z,7.47
2022-12-13T16:09:33.583Z,10.77
2022-12-13T16:12:00.777Z,6.38
2022-12-13T16:14:27.876Z,11.20
2022-12-13T16:16:55.013Z,10.63
2022-12-13T16:19:22.188Z,7.10
2022-12-13T16:21:52.448Z,6.50
2022-12-13T16:24:19.579Z,6.57
2022-12-13T16:26:46.725Z,8.32
2022-12-13T16:29:13.785Z,9.98
2022-12-13T16:31:40.883Z,13.57
2022-12-13T16:34:07.950Z,6.68
2022-12-13T16:36:35.217Z,9.52
2022-12-13T16:39:02.285Z,9.73
2022-12-13T16:41:29.380Z,9.23
2022-12-13T16:43:56.441Z,6.97
2022-12-13T16:47:11.590Z,9.48
2022-12-13T16:49:10.606Z,13.52
2022-12-13T16:51:39.628Z,12.75
2022-12-13T16:54:08.454Z,23.70
2022-12-13T16:56:35.603Z,22.95
2022-12-13T16:59:02.759Z,24.48
2022-12-13T17:01:32.883Z,26.33
2022-12-13T17:04:00.009Z,15.13
2022-12-13T17:06:27.133Z,22.80
2022-12-13T17:08:54.260Z,22.00
2022-12-13T17:11:21.347Z,24.95
2022-12-13T17:13:49.688Z,19.35
2022-12-13T17:16:16.803Z,15.90
2022-12-13T17:18:43.986Z,17.25
2022-12-13T17:21:11.124Z,21.42
2022-12-13T17:23:38.249Z,17.58
2022-12-13T17:26:05.830Z,20.52
2022-12-13T17:28:32.897Z,19.75
2022-12-13T17:31:00.162Z,15.75
2022-12-13T17:33:27.698Z,16.70
2022-12-13T17:35:55.402Z,16.05
2022-12-13T17:38:22.643Z,15.70
2022-12-13T17:40:54.793Z,15.88
2022-12-13T17:43:32.745Z,14.38
2022-12-13T17:46:01.378Z,16.48
2022-12-13T17:48:30.622Z,13.55
2022-12-13T17:51:01.223Z,13.18
2022-12-13T17:53:28.749Z,15.10
2022-12-13T17:55:56.727Z,10.85
2022-12-13T17:58:24.228Z,13.93
2022-12-13T18:00:51.565Z,13.65
2022-12-13T18:03:18.872Z,16.25
2022-12-13T18:05:45.965Z,15.65
2022-12-13T18:08:13.057Z,15.57
2022-12-13T18:10:40.189Z,13.35
2022-12-13T18:13:07.289Z,19.17
2022-12-13T18:15:34.402Z,13.85
2022-12-13T18:18:12.321Z,11.30
2022-12-13T18:20:39.759Z,14.38
2022-12-13T18:23:07.062Z,13.82
2022-12-13T18:25:34.126Z,11.75
2022-12-13T18:28:01.457Z,11.30
2022-12-13T18:30:31.049Z,18.42
2022-12-13T18:32:58.174Z,16.73
2022-12-13T18:35:25.246Z,13.23
2022-12-13T18:37:52.320Z,21.42
2022-12-13T18:40:19.393Z,10.52
2022-12-13T18:42:46.480Z,13.73
2022-12-13T18:45:13.538Z,16.02
2022-12-13T18:47:40.611Z,16.58
2022-12-13T18:50:07.709Z,12.10
2022-12-13T18:52:34.838Z,13.60
2022-12-13T18:55:01.897Z,14.05
2022-12-13T18:57:29.001Z,13.43
2022-12-13T18:59:56.063Z,18.98
2022-12-13T19:02:23.261Z,16.83
2022-12-13T19:04:55.330Z,14.95
2022-12-13T19:07:22.976Z,14.70
2022-12-13T19:09:54.388Z,13.27
2022-12-13T19:12:22.252Z,17.92
2022-12-13T19:14:54.572Z,16.23
2022-12-13T19:17:22.315Z,17.92
2022-12-13T19:19:49.382Z,14.10
2022-12-13T19:22:16.529Z,17.10
2022-12-13T19:24:43.609Z,20.63
2022-12-13T19:27:10.675Z,19.13
2022-12-13T19:29:37.759Z,19.95
2022-12-13T19:32:04.972Z,20.35
2022-12-13T19:34:32.100Z,18.27
2022-12-13T19:37:04.498Z,20.77
2022-12-13T19:39:33.272Z,23.67
2022-12-13T19:42:00.458Z,23.60
2022-12-13T19:44:27.553Z,30.80
2022-12-13T19:46:56.073Z,20.98
2022-12-13T19:49:23.231Z,25.23
2022-12-13T19:51:50.355Z,19.15
2022-12-13T19:54:17.495Z,21.00
2022-12-13T19:56:44.815Z,26.05
2022-12-13T19:59:12.245Z,19.48
2022-12-13T20:01:39.613Z,26.65
2022-12-13T20:04:06.758Z,23.50
2022-12-13T20:06:33.855Z,22.65
2022-12-13T20:09:00.978Z,27.52
2022-12-13T20:11:28.181Z,23.45
2022-12-13T20:13:55.330Z,30.08
2022-12-13T20:16:22.482Z,23.85
2022-12-13T20:18:49.647Z,23.92
2022-12-13T20:21:16.812Z,26.38
2022-12-13T20:23:48.917Z,23.00
2022-12-13T20:26:16.901Z,23.48
2022-12-13T20:28:43.977Z,24.52
2022-12-13T20:31:11.149Z,22.45
2022-12-13T20:33:38.480Z,21.48
2022-12-13T20:38:52.727Z,24.40
2022-12-13T20:41:19.838Z,21.58
2022-12-13T20:43:48.458Z,23.80
2022-12-13T20:46:15.971Z,32.28
2022-12-13T20:48:43.173Z,24.92
2022-12-13T20:51:10.241Z,23.27
2022-12-13T20:53:40.602Z,22.58
2022-12-13T20:56:08.502Z,24.25
2022-12-13T20:58:39.714Z,34.00
2022-12-13T21:01:07.311Z,38.50
2022-12-13T21:03:34.459Z,42.50
2022-12-13T21:06:01.556Z,57.78
2022-12-13T21:08:47.388Z,56.90
2022-12-13T21:11:26.648Z,50.83
2022-12-13T21:13:53.738Z,82.13
2022-12-13T21:16:20.874Z,88.30
2022-12-13T21:18:47.976Z,88.05
2022-12-13T21:21:15.080Z,70.40
2022-12-13T21:23:42.188Z,76.70
2022-12-13T21:26:09.596Z,88.38
2022-12-13T21:28:36.745Z,85.90
2022-12-13T21:31:04.774Z,80.03
2022-12-13T21:33:31.847Z,87.43
2022-12-13T21:35:58.910Z,89.32
2022-12-13T21:38:25.961Z,70.78
2022-12-13T21:40:53.021Z,81.22
2022-12-13T21:43:36.716Z,86.38
2022-12-13T21:46:03.928Z,82.32
2022-12-13T21:48:31.066Z,94.18
2022-12-13T21:50:58.185Z,80.38
2022-12-13T21:53:25.618Z,77.05
2022-12-13T21:55:53.038Z,83.55
2022-12-13T21:58:38.801Z,66.47
2022-12-13T22:01:06.124Z,66.47
2022-12-13T22:03:33.250Z,67.95
2022-12-13T22:06:00.342Z,68.97
2022-12-13T22:08:27.702Z,64.53
2022-12-13T22:11:19.314Z,70.65
2022-12-13T22:13:48.436Z,72.72
2022-12-13T22:16:15.756Z,61.95
2022-12-13T22:18:42.860Z,52.58
2022-12-13T22:21:09.969Z,66.82
2022-12-13T22:23:37.070Z,51.50
2022-12-13T22:26:04.161Z,52.83
2022-12-13T22:28:31.267Z,58.90
2022-12-13T22:30:58.558Z,44.17
2022-12-13T22:33:25.704Z,56.60
2022-12-13T22:35:52.780Z,53.10
2022-12-13T22:38:22.851Z,51.75
2022-12-13T22:40:49.931Z,53.35
2022-12-13T22:43:20.509Z,45.72
2022-12-13T22:45:47.923Z,48.83
2022-12-13T22:48:15.366Z,45.47
2022-12-13T22:50:42.449Z,47.20
2022-12-13T22:53:09.564Z,40.95
2022-12-13T22:55:36.629Z,43.17
2022-12-13T22:58:03.681Z,42.20
2022-12-13T23:00:30.809Z,36.55
2022-12-13T23:02:57.985Z,35.38
2022-12-13T23:05:25.123Z,44.15
2022-12-13T23:07:52.191Z,37.63
2022-12-13T23:10:38.070Z,31.80
2022-12-13T23:13:05.308Z,32.10
2022-12-13T23:15:32.442Z,32.78
2022-12-13T23:17:59.497Z,32.22
2022-12-13T23:20:26.617Z,35.67
2022-12-13T23:22:53.749Z,34.00
2022-12-13T23:25:20.844Z,27.40
2022-12-13T23:27:47.951Z,26.85
2022-12-13T23:30:15.649Z,30.98
2022-12-13T23:32:42.714Z,26.85
2022-12-13T23:35:10.311Z,33.55
2022-12-13T23:37:37.688Z,28.70
2022-12-13T23:40:04.826Z,27.58
2022-12-13T23:42:31.917Z,27.92
2022-12-13T23:44:59.045Z,25.27
2022-12-13T23:47:26.102Z,26.02
2022-12-13T23:49:53.158Z,25.70
2022-12-13T23:52:20.212Z,27.48
2022-12-13T23:54:47.317Z,22.85
2022-12-13T23:57:14.404Z,20.67
2022-12-13T23:59:41.453Z,26.60
